Cadiz, OH (43907)

02:56 AM EST die 08o December, anno 2016 (GMT -0500)
Steubenville Pike | | Change Station

Elev 1237 ft 40.28 °N, 80.99 °W | Updated 2 seconds ago

Aequaliter Nubila
Aequaliter Nubila
31.8 °F
Feels Like 26 °F
N
6.0
Ventus Variabilis Ventus from Magis Zephyrus quam Auster
Gusts 7.4 mph

Hodie
High -- | Low -- °F
--% Chance of Precip.
Yesterday
High -- | Low -- °F
Precip. -- in
Pressio 30.10 in
Visibilitas 10.0 milia passuum
Clouds Aequaliter Nubila 9500 ft
Frigus Venti 26 °F
Frigus in quo Ros apparet 23 °F
Umor 70%
Rainfall 0.00 in
Snow Depth Not available.
7:34 AM 4:57 PM
First Quarter, 61% visible
METAR KHLG 080753Z AUTO 27008KT 10SM OVC095 00/M06 A3006 RMK AO2 SLP191 T00001056
Pressio 30.10 in
Visibilitas 10.0 milia passuum
Clouds Aequaliter Nubila 9500 ft
Frigus Venti 26 °F
Frigus in quo Ros apparet 23 °F
Umor 70%
Rainfall 0.00 in
Snow Depth Not available.
7:34 AM 4:57 PM
First Quarter, 61% visible
METAR KHLG 080753Z AUTO 27008KT 10SM OVC095 00/M06 A3006 RMK AO2 SLP191 T00001056

10-Day Weather Forecast

Almanac

Astronomy

Dec. 08, 2016 Rise Set
Actual Time
Civil Twilight
Nautical Twilight
Astronomical Twilight
Moon
Length Of Visible Light
Length of Day
Tomorrow will be .
, % of the Moon is Illuminated

Today's Extremes

State Highs State Lows

Community

WunderPhotos

Upload Photos

1,956,259 photos uploaded!

WunderBlog® & News

Nearby

Air Quality

  Air Quality AQ Index Pollutant
Not available.

Snow Depth

Station Depth Elevation

Earthquake Activity

City Distance Mag. Time & Date
Minimum magnitude displayed is 2.5.

Coastal Water Temperatures

Locus Calor

Stations

Nearby Weather Stations

Station Location Temp Frigus Venti Frigus in quo Ros apparet Umor Ventus Precip. Elev Renovata Type
                   

Watches & Warnings

There are currently no watches in effect.